sensor_id;sensor_type;location;lat;lon;timestamp;P1;durP1;ratioP1;P2;durP2;ratioP2
4696;SDS011;2362;50.780;0.292;2023-07-31T00:00:36;59.47;;;12.07;;
4696;SDS011;2362;50.780;0.292;2023-07-31T00:03:02;52.00;;;9.55;;
4696;SDS011;2362;50.780;0.292;2023-07-31T00:05:28;53.75;;;11.18;;
4696;SDS011;2362;50.780;0.292;2023-07-31T00:07:53;52.08;;;10.90;;
4696;SDS011;2362;50.780;0.292;2023-07-31T00:10:19;48.78;;;9.70;;
4696;SDS011;2362;50.780;0.292;2023-07-31T00:12:45;50.08;;;11.73;;
4696;SDS011;2362;50.780;0.292;2023-07-31T00:15:11;37.72;;;9.00;;
4696;SDS011;2362;50.780;0.292;2023-07-31T00:17:38;43.78;;;9.38;;
4696;SDS011;2362;50.780;0.292;2023-07-31T00:20:04;41.58;;;8.70;;
4696;SDS011;2362;50.780;0.292;2023-07-31T00:22:30;46.05;;;10.70;;
4696;SDS011;2362;50.780;0.292;2023-07-31T00:24:56;69.90;;;14.48;;
4696;SDS011;2362;50.780;0.292;2023-07-31T00:27:22;59.42;;;12.15;;
4696;SDS011;2362;50.780;0.292;2023-07-31T00:29:48;60.30;;;12.07;;
4696;SDS011;2362;50.780;0.292;2023-07-31T00:32:14;66.68;;;14.18;;
4696;SDS011;2362;50.780;0.292;2023-07-31T00:34:39;67.07;;;12.63;;
4696;SDS011;2362;50.780;0.292;2023-07-31T00:37:05;53.58;;;12.70;;
4696;SDS011;2362;50.780;0.292;2023-07-31T00:39:33;59.28;;;11.65;;
4696;SDS011;2362;50.780;0.292;2023-07-31T00:41:59;57.33;;;11.85;;
4696;SDS011;2362;50.780;0.292;2023-07-31T00:44:25;66.10;;;12.98;;
4696;SDS011;2362;50.780;0.292;2023-07-31T00:46:51;65.13;;;12.38;;
4696;SDS011;2362;50.780;0.292;2023-07-31T00:49:18;79.60;;;13.13;;
4696;SDS011;2362;50.780;0.292;2023-07-31T00:51:43;59.50;;;11.93;;
4696;SDS011;2362;50.780;0.292;2023-07-31T00:54:09;68.35;;;12.68;;
4696;SDS011;2362;50.780;0.292;2023-07-31T00:56:36;62.53;;;11.93;;
4696;SDS011;2362;50.780;0.292;2023-07-31T00:59:02;49.22;;;10.70;;
4696;SDS011;2362;50.780;0.292;2023-07-31T01:01:28;51.38;;;8.32;;
4696;SDS011;2362;50.780;0.292;2023-07-31T01:03:54;38.78;;;7.80;;
4696;SDS011;2362;50.780;0.292;2023-07-31T01:09:06;41.05;;;9.85;;
4696;SDS011;2362;50.780;0.292;2023-07-31T01:11:48;57.63;;;10.77;;
4696;SDS011;2362;50.780;0.292;2023-07-31T01:14:20;56.13;;;9.10;;
4696;SDS011;2362;50.780;0.292;2023-07-31T01:16:46;38.42;;;8.48;;
4696;SDS011;2362;50.780;0.292;2023-07-31T01:19:12;48.22;;;9.02;;
4696;SDS011;2362;50.780;0.292;2023-07-31T01:21:52;48.42;;;8.77;;
4696;SDS011;2362;50.780;0.292;2023-07-31T01:24:40;47.88;;;8.70;;
4696;SDS011;2362;50.780;0.292;2023-07-31T01:27:21;56.50;;;10.82;;
4696;SDS011;2362;50.780;0.292;2023-07-31T01:30:02;47.08;;;9.30;;
4696;SDS011;2362;50.780;0.292;2023-07-31T01:32:35;50.70;;;9.07;;
4696;SDS011;2362;50.780;0.292;2023-07-31T01:35:05;49.55;;;9.23;;
4696;SDS011;2362;50.780;0.292;2023-07-31T01:37:31;48.33;;;11.48;;
4696;SDS011;2362;50.780;0.292;2023-07-31T01:39:57;52.22;;;10.75;;
4696;SDS011;2362;50.780;0.292;2023-07-31T01:42:22;45.00;;;9.98;;
4696;SDS011;2362;50.780;0.292;2023-07-31T01:44:48;49.42;;;10.88;;
4696;SDS011;2362;50.780;0.292;2023-07-31T01:47:14;58.45;;;12.25;;
4696;SDS011;2362;50.780;0.292;2023-07-31T01:49:39;53.70;;;10.32;;
4696;SDS011;2362;50.780;0.292;2023-07-31T01:52:05;56.80;;;10.38;;
4696;SDS011;2362;50.780;0.292;2023-07-31T01:54:31;70.47;;;12.35;;
4696;SDS011;2362;50.780;0.292;2023-07-31T01:56:57;64.60;;;13.60;;
4696;SDS011;2362;50.780;0.292;2023-07-31T01:59:23;66.93;;;14.02;;
4696;SDS011;2362;50.780;0.292;2023-07-31T02:01:49;70.30;;;13.25;;
4696;SDS011;2362;50.780;0.292;2023-07-31T02:04:14;75.38;;;16.75;;
4696;SDS011;2362;50.780;0.292;2023-07-31T02:06:40;63.47;;;14.07;;
4696;SDS011;2362;50.780;0.292;2023-07-31T02:09:05;65.53;;;12.65;;
4696;SDS011;2362;50.780;0.292;2023-07-31T02:11:31;60.78;;;12.93;;
4696;SDS011;2362;50.780;0.292;2023-07-31T02:13:57;60.75;;;12.65;;
4696;SDS011;2362;50.780;0.292;2023-07-31T02:16:22;69.43;;;14.40;;
4696;SDS011;2362;50.780;0.292;2023-07-31T02:18:48;75.60;;;13.60;;
4696;SDS011;2362;50.780;0.292;2023-07-31T02:21:14;62.90;;;13.07;;
4696;SDS011;2362;50.780;0.292;2023-07-31T02:23:39;83.25;;;14.52;;
4696;SDS011;2362;50.780;0.292;2023-07-31T02:26:05;68.03;;;14.10;;
4696;SDS011;2362;50.780;0.292;2023-07-31T02:28:31;79.65;;;12.85;;
4696;SDS011;2362;50.780;0.292;2023-07-31T02:30:56;76.38;;;13.60;;
4696;SDS011;2362;50.780;0.292;2023-07-31T02:33:22;60.88;;;12.98;;
4696;SDS011;2362;50.780;0.292;2023-07-31T02:35:47;70.43;;;13.38;;
4696;SDS011;2362;50.780;0.292;2023-07-31T02:38:13;67.88;;;13.35;;
4696;SDS011;2362;50.780;0.292;2023-07-31T02:40:39;79.57;;;13.90;;
4696;SDS011;2362;50.780;0.292;2023-07-31T02:43:08;63.70;;;13.07;;
4696;SDS011;2362;50.780;0.292;2023-07-31T02:45:34;73.38;;;13.50;;
4696;SDS011;2362;50.780;0.292;2023-07-31T02:47:59;69.88;;;12.60;;
4696;SDS011;2362;50.780;0.292;2023-07-31T02:50:25;61.10;;;13.30;;
4696;SDS011;2362;50.780;0.292;2023-07-31T02:52:52;72.47;;;12.38;;
4696;SDS011;2362;50.780;0.292;2023-07-31T02:55:18;60.10;;;12.27;;
4696;SDS011;2362;50.780;0.292;2023-07-31T02:57:44;58.42;;;11.45;;
4696;SDS011;2362;50.780;0.292;2023-07-31T03:00:10;59.08;;;10.85;;
4696;SDS011;2362;50.780;0.292;2023-07-31T03:02:36;40.75;;;10.63;;
4696;SDS011;2362;50.780;0.292;2023-07-31T03:05:01;64.47;;;12.38;;
4696;SDS011;2362;50.780;0.292;2023-07-31T03:07:27;59.45;;;12.10;;
4696;SDS011;2362;50.780;0.292;2023-07-31T03:09:53;38.85;;;10.07;;
4696;SDS011;2362;50.780;0.292;2023-07-31T03:12:19;60.75;;;11.60;;
4696;SDS011;2362;50.780;0.292;2023-07-31T03:14:45;51.03;;;11.02;;
4696;SDS011;2362;50.780;0.292;2023-07-31T03:17:10;37.78;;;10.25;;
4696;SDS011;2362;50.780;0.292;2023-07-31T03:19:36;49.80;;;9.73;;
4696;SDS011;2362;50.780;0.292;2023-07-31T03:22:02;40.22;;;8.55;;
4696;SDS011;2362;50.780;0.292;2023-07-31T03:24:28;49.35;;;9.32;;
4696;SDS011;2362;50.780;0.292;2023-07-31T03:26:53;34.88;;;8.23;;
4696;SDS011;2362;50.780;0.292;2023-07-31T03:29:19;44.38;;;9.70;;
4696;SDS011;2362;50.780;0.292;2023-07-31T03:31:45;41.40;;;9.35;;
4696;SDS011;2362;50.780;0.292;2023-07-31T03:34:10;32.22;;;7.95;;
4696;SDS011;2362;50.780;0.292;2023-07-31T03:36:36;48.08;;;9.23;;
4696;SDS011;2362;50.780;0.292;2023-07-31T03:39:02;41.60;;;7.57;;
4696;SDS011;2362;50.780;0.292;2023-07-31T03:41:28;33.95;;;8.35;;
4696;SDS011;2362;50.780;0.292;2023-07-31T03:43:54;35.35;;;7.75;;
4696;SDS011;2362;50.780;0.292;2023-07-31T03:46:22;37.75;;;8.07;;
4696;SDS011;2362;50.780;0.292;2023-07-31T03:48:51;28.48;;;6.93;;
4696;SDS011;2362;50.780;0.292;2023-07-31T03:51:17;33.58;;;8.35;;
4696;SDS011;2362;50.780;0.292;2023-07-31T03:53:43;24.15;;;6.47;;
4696;SDS011;2362;50.780;0.292;2023-07-31T03:56:09;28.02;;;6.78;;
4696;SDS011;2362;50.780;0.292;2023-07-31T03:58:35;37.72;;;6.85;;
4696;SDS011;2362;50.780;0.292;2023-07-31T04:01:02;39.05;;;7.13;;
4696;SDS011;2362;50.780;0.292;2023-07-31T04:03:28;21.20;;;5.63;;
4696;SDS011;2362;50.780;0.292;2023-07-31T04:05:54;27.67;;;6.53;;
4696;SDS011;2362;50.780;0.292;2023-07-31T04:08:21;20.60;;;4.45;;
4696;SDS011;2362;50.780;0.292;2023-07-31T04:10:47;20.70;;;5.05;;
4696;SDS011;2362;50.780;0.292;2023-07-31T04:13:13;24.17;;;4.93;;
4696;SDS011;2362;50.780;0.292;2023-07-31T04:15:38;29.05;;;5.50;;
4696;SDS011;2362;50.780;0.292;2023-07-31T04:18:04;29.60;;;5.30;;
4696;SDS011;2362;50.780;0.292;2023-07-31T04:20:30;27.05;;;6.20;;
4696;SDS011;2362;50.780;0.292;2023-07-31T04:22:56;23.77;;;4.95;;
4696;SDS011;2362;50.780;0.292;2023-07-31T04:25:21;31.88;;;5.88;;
4696;SDS011;2362;50.780;0.292;2023-07-31T04:27:47;31.52;;;5.25;;
4696;SDS011;2362;50.780;0.292;2023-07-31T04:30:13;27.55;;;6.47;;
4696;SDS011;2362;50.780;0.292;2023-07-31T04:32:38;28.27;;;6.97;;
4696;SDS011;2362;50.780;0.292;2023-07-31T04:35:04;42.53;;;7.78;;
4696;SDS011;2362;50.780;0.292;2023-07-31T04:37:30;29.35;;;6.90;;
4696;SDS011;2362;50.780;0.292;2023-07-31T04:39:56;34.47;;;9.27;;
4696;SDS011;2362;50.780;0.292;2023-07-31T04:42:22;44.42;;;8.10;;
4696;SDS011;2362;50.780;0.292;2023-07-31T04:44:47;33.08;;;9.20;;
4696;SDS011;2362;50.780;0.292;2023-07-31T04:47:14;49.35;;;9.52;;
4696;SDS011;2362;50.780;0.292;2023-07-31T04:49:40;41.42;;;8.27;;
4696;SDS011;2362;50.780;0.292;2023-07-31T04:52:06;39.45;;;9.65;;
4696;SDS011;2362;50.780;0.292;2023-07-31T04:54:31;40.70;;;8.95;;
4696;SDS011;2362;50.780;0.292;2023-07-31T04:56:57;44.08;;;8.48;;
4696;SDS011;2362;50.780;0.292;2023-07-31T04:59:23;34.28;;;9.00;;
4696;SDS011;2362;50.780;0.292;2023-07-31T05:01:48;45.30;;;8.68;;
4696;SDS011;2362;50.780;0.292;2023-07-31T05:04:14;56.22;;;9.32;;
4696;SDS011;2362;50.780;0.292;2023-07-31T05:06:40;44.92;;;8.85;;
4696;SDS011;2362;50.780;0.292;2023-07-31T05:09:06;37.63;;;9.40;;
4696;SDS011;2362;50.780;0.292;2023-07-31T05:11:34;46.60;;;9.88;;
4696;SDS011;2362;50.780;0.292;2023-07-31T05:14:00;47.95;;;9.55;;
4696;SDS011;2362;50.780;0.292;2023-07-31T05:16:26;46.45;;;9.88;;
4696;SDS011;2362;50.780;0.292;2023-07-31T05:18:51;54.35;;;10.55;;
4696;SDS011;2362;50.780;0.292;2023-07-31T05:21:17;49.58;;;10.10;;
4696;SDS011;2362;50.780;0.292;2023-07-31T05:23:42;50.13;;;10.68;;
4696;SDS011;2362;50.780;0.292;2023-07-31T05:26:08;49.60;;;10.10;;
4696;SDS011;2362;50.780;0.292;2023-07-31T05:28:37;59.17;;;11.23;;
4696;SDS011;2362;50.780;0.292;2023-07-31T05:31:03;63.58;;;10.40;;
4696;SDS011;2362;50.780;0.292;2023-07-31T05:33:29;50.03;;;10.13;;
4696;SDS011;2362;50.780;0.292;2023-07-31T05:35:56;47.30;;;8.32;;
4696;SDS011;2362;50.780;0.292;2023-07-31T05:38:21;49.38;;;9.27;;
4696;SDS011;2362;50.780;0.292;2023-07-31T05:40:47;36.83;;;8.30;;
4696;SDS011;2362;50.780;0.292;2023-07-31T05:43:13;53.15;;;9.30;;
4696;SDS011;2362;50.780;0.292;2023-07-31T05:45:39;52.78;;;9.98;;
4696;SDS011;2362;50.780;0.292;2023-07-31T05:48:05;59.30;;;10.00;;
4696;SDS011;2362;50.780;0.292;2023-07-31T05:50:31;52.47;;;9.30;;
4696;SDS011;2362;50.780;0.292;2023-07-31T05:52:57;73.25;;;11.77;;
4696;SDS011;2362;50.780;0.292;2023-07-31T05:55:23;59.15;;;12.27;;
4696;SDS011;2362;50.780;0.292;2023-07-31T05:57:51;52.42;;;9.43;;
4696;SDS011;2362;50.780;0.292;2023-07-31T06:00:18;41.85;;;8.48;;
4696;SDS011;2362;50.780;0.292;2023-07-31T06:02:43;50.08;;;10.13;;
4696;SDS011;2362;50.780;0.292;2023-07-31T06:05:09;42.33;;;9.27;;
4696;SDS011;2362;50.780;0.292;2023-07-31T06:07:35;52.38;;;9.82;;
4696;SDS011;2362;50.780;0.292;2023-07-31T06:10:01;33.20;;;6.10;;
4696;SDS011;2362;50.780;0.292;2023-07-31T06:12:28;36.28;;;6.80;;
4696;SDS011;2362;50.780;0.292;2023-07-31T06:14:54;39.78;;;7.63;;
4696;SDS011;2362;50.780;0.292;2023-07-31T06:17:20;48.45;;;8.68;;
4696;SDS011;2362;50.780;0.292;2023-07-31T06:19:46;50.83;;;10.07;;
4696;SDS011;2362;50.780;0.292;2023-07-31T06:22:12;56.65;;;10.32;;
4696;SDS011;2362;50.780;0.292;2023-07-31T06:24:37;45.20;;;8.45;;
4696;SDS011;2362;50.780;0.292;2023-07-31T06:27:03;46.30;;;9.20;;
4696;SDS011;2362;50.780;0.292;2023-07-31T06:29:31;30.05;;;7.57;;
4696;SDS011;2362;50.780;0.292;2023-07-31T06:31:56;63.35;;;10.05;;
4696;SDS011;2362;50.780;0.292;2023-07-31T06:34:22;46.42;;;10.80;;
4696;SDS011;2362;50.780;0.292;2023-07-31T06:36:48;55.75;;;10.15;;
4696;SDS011;2362;50.780;0.292;2023-07-31T06:39:14;61.42;;;11.75;;
4696;SDS011;2362;50.780;0.292;2023-07-31T06:41:39;80.45;;;13.43;;
4696;SDS011;2362;50.780;0.292;2023-07-31T06:44:05;61.50;;;10.77;;
4696;SDS011;2362;50.780;0.292;2023-07-31T06:46:31;55.05;;;10.40;;
4696;SDS011;2362;50.780;0.292;2023-07-31T06:48:56;75.45;;;13.98;;
4696;SDS011;2362;50.780;0.292;2023-07-31T06:51:22;66.85;;;11.60;;
4696;SDS011;2362;50.780;0.292;2023-07-31T06:53:47;56.17;;;10.98;;
4696;SDS011;2362;50.780;0.292;2023-07-31T06:56:13;61.28;;;11.38;;
4696;SDS011;2362;50.780;0.292;2023-07-31T06:58:39;63.90;;;11.82;;
4696;SDS011;2362;50.780;0.292;2023-07-31T07:01:05;56.22;;;12.38;;
4696;SDS011;2362;50.780;0.292;2023-07-31T07:03:30;61.45;;;10.65;;
4696;SDS011;2362;50.780;0.292;2023-07-31T07:05:57;73.13;;;12.98;;
4696;SDS011;2362;50.780;0.292;2023-07-31T07:08:23;57.60;;;10.18;;
4696;SDS011;2362;50.780;0.292;2023-07-31T07:10:49;66.10;;;12.50;;
4696;SDS011;2362;50.780;0.292;2023-07-31T07:13:15;58.55;;;11.70;;
4696;SDS011;2362;50.780;0.292;2023-07-31T07:15:41;43.65;;;10.50;;
4696;SDS011;2362;50.780;0.292;2023-07-31T07:18:06;49.80;;;10.27;;
4696;SDS011;2362;50.780;0.292;2023-07-31T07:20:32;61.28;;;11.68;;
4696;SDS011;2362;50.780;0.292;2023-07-31T07:22:58;62.38;;;13.75;;
4696;SDS011;2362;50.780;0.292;2023-07-31T07:25:23;67.47;;;13.07;;
4696;SDS011;2362;50.780;0.292;2023-07-31T07:27:49;65.00;;;13.43;;
4696;SDS011;2362;50.780;0.292;2023-07-31T07:30:15;74.55;;;12.70;;
4696;SDS011;2362;50.780;0.292;2023-07-31T07:32:40;64.45;;;12.40;;
4696;SDS011;2362;50.780;0.292;2023-07-31T07:35:06;57.90;;;10.77;;
4696;SDS011;2362;50.780;0.292;2023-07-31T07:37:32;72.90;;;11.90;;
4696;SDS011;2362;50.780;0.292;2023-07-31T07:39:58;59.97;;;10.68;;
4696;SDS011;2362;50.780;0.292;2023-07-31T07:42:24;60.10;;;12.30;;
4696;SDS011;2362;50.780;0.292;2023-07-31T07:44:50;60.63;;;11.93;;
4696;SDS011;2362;50.780;0.292;2023-07-31T07:47:15;59.70;;;13.55;;
4696;SDS011;2362;50.780;0.292;2023-07-31T07:49:41;65.35;;;12.02;;
4696;SDS011;2362;50.780;0.292;2023-07-31T07:52:07;49.20;;;11.90;;
4696;SDS011;2362;50.780;0.292;2023-07-31T07:54:32;50.80;;;11.13;;
4696;SDS011;2362;50.780;0.292;2023-07-31T07:56:58;41.13;;;10.35;;
4696;SDS011;2362;50.780;0.292;2023-07-31T07:59:24;35.75;;;7.60;;
4696;SDS011;2362;50.780;0.292;2023-07-31T08:01:50;27.35;;;6.32;;
4696;SDS011;2362;50.780;0.292;2023-07-31T08:04:15;21.63;;;5.78;;
4696;SDS011;2362;50.780;0.292;2023-07-31T08:06:41;36.42;;;6.75;;
4696;SDS011;2362;50.780;0.292;2023-07-31T08:09:06;30.00;;;7.13;;
4696;SDS011;2362;50.780;0.292;2023-07-31T08:11:33;34.85;;;5.53;;
4696;SDS011;2362;50.780;0.292;2023-07-31T08:13:59;24.40;;;5.25;;
4696;SDS011;2362;50.780;0.292;2023-07-31T08:16:25;25.73;;;5.50;;
4696;SDS011;2362;50.780;0.292;2023-07-31T08:18:51;30.38;;;6.28;;
4696;SDS011;2362;50.780;0.292;2023-07-31T08:21:17;31.52;;;5.30;;
4696;SDS011;2362;50.780;0.292;2023-07-31T08:23:42;25.45;;;5.07;;
4696;SDS011;2362;50.780;0.292;2023-07-31T08:26:08;19.50;;;4.40;;
4696;SDS011;2362;50.780;0.292;2023-07-31T08:28:39;19.88;;;4.88;;
4696;SDS011;2362;50.780;0.292;2023-07-31T08:31:05;22.48;;;5.18;;
4696;SDS011;2362;50.780;0.292;2023-07-31T08:33:30;30.00;;;5.15;;
4696;SDS011;2362;50.780;0.292;2023-07-31T08:35:56;29.88;;;6.72;;
4696;SDS011;2362;50.780;0.292;2023-07-31T08:38:22;30.63;;;5.13;;
4696;SDS011;2362;50.780;0.292;2023-07-31T08:40:50;29.73;;;5.43;;
4696;SDS011;2362;50.780;0.292;2023-07-31T08:43:16;23.90;;;4.40;;
4696;SDS011;2362;50.780;0.292;2023-07-31T08:45:42;25.95;;;5.03;;
4696;SDS011;2362;50.780;0.292;2023-07-31T08:48:08;24.60;;;4.75;;
4696;SDS011;2362;50.780;0.292;2023-07-31T08:50:34;22.00;;;3.60;;
4696;SDS011;2362;50.780;0.292;2023-07-31T08:53:01;23.80;;;4.18;;
4696;SDS011;2362;50.780;0.292;2023-07-31T08:55:27;28.90;;;5.88;;
4696;SDS011;2362;50.780;0.292;2023-07-31T08:57:54;20.42;;;4.38;;
4696;SDS011;2362;50.780;0.292;2023-07-31T09:00:21;12.88;;;3.05;;
4696;SDS011;2362;50.780;0.292;2023-07-31T09:02:54;17.05;;;4.25;;
4696;SDS011;2362;50.780;0.292;2023-07-31T09:05:24;13.10;;;3.03;;
4696;SDS011;2362;50.780;0.292;2023-07-31T09:07:51;18.83;;;3.63;;
4696;SDS011;2362;50.780;0.292;2023-07-31T09:10:17;18.50;;;2.95;;
4696;SDS011;2362;50.780;0.292;2023-07-31T09:12:43;12.13;;;2.15;;
4696;SDS011;2362;50.780;0.292;2023-07-31T09:15:09;7.22;;;1.92;;
4696;SDS011;2362;50.780;0.292;2023-07-31T09:17:36;19.10;;;2.33;;
4696;SDS011;2362;50.780;0.292;2023-07-31T09:20:15;12.57;;;2.30;;
4696;SDS011;2362;50.780;0.292;2023-07-31T09:22:42;13.00;;;2.88;;
4696;SDS011;2362;50.780;0.292;2023-07-31T09:30:25;13.02;;;2.25;;
4696;SDS011;2362;50.780;0.292;2023-07-31T09:32:51;13.10;;;4.15;;
4696;SDS011;2362;50.780;0.292;2023-07-31T09:35:29;16.88;;;3.33;;
4696;SDS011;2362;50.780;0.292;2023-07-31T09:37:57;14.23;;;2.38;;
4696;SDS011;2362;50.780;0.292;2023-07-31T09:40:28;16.50;;;2.90;;
4696;SDS011;2362;50.780;0.292;2023-07-31T09:43:01;20.95;;;3.20;;
4696;SDS011;2362;50.780;0.292;2023-07-31T09:45:39;13.40;;;2.72;;
4696;SDS011;2362;50.780;0.292;2023-07-31T09:48:10;10.85;;;2.25;;
4696;SDS011;2362;50.780;0.292;2023-07-31T09:50:38;22.05;;;2.80;;
4696;SDS011;2362;50.780;0.292;2023-07-31T09:53:06;21.08;;;3.95;;
4696;SDS011;2362;50.780;0.292;2023-07-31T09:55:33;25.90;;;2.55;;
4696;SDS011;2362;50.780;0.292;2023-07-31T09:57:59;15.10;;;2.88;;
4696;SDS011;2362;50.780;0.292;2023-07-31T10:00:29;22.67;;;3.40;;
4696;SDS011;2362;50.780;0.292;2023-07-31T10:02:57;17.65;;;3.40;;
4696;SDS011;2362;50.780;0.292;2023-07-31T10:05:25;18.73;;;2.75;;
4696;SDS011;2362;50.780;0.292;2023-07-31T10:08:10;12.88;;;2.58;;
4696;SDS011;2362;50.780;0.292;2023-07-31T10:10:41;20.67;;;3.10;;
4696;SDS011;2362;50.780;0.292;2023-07-31T10:13:11;14.95;;;2.83;;
4696;SDS011;2362;50.780;0.292;2023-07-31T10:15:37;16.48;;;2.42;;
4696;SDS011;2362;50.780;0.292;2023-07-31T10:18:05;17.02;;;2.10;;
4696;SDS011;2362;50.780;0.292;2023-07-31T10:20:31;11.32;;;2.10;;
4696;SDS011;2362;50.780;0.292;2023-07-31T10:22:57;11.43;;;1.98;;
4696;SDS011;2362;50.780;0.292;2023-07-31T10:25:24;11.88;;;1.90;;
4696;SDS011;2362;50.780;0.292;2023-07-31T10:27:51;14.98;;;2.00;;
4696;SDS011;2362;50.780;0.292;2023-07-31T10:30:21;18.17;;;2.42;;
4696;SDS011;2362;50.780;0.292;2023-07-31T10:32:51;9.23;;;1.70;;
4696;SDS011;2362;50.780;0.292;2023-07-31T10:35:18;10.40;;;1.83;;
4696;SDS011;2362;50.780;0.292;2023-07-31T10:37:47;7.30;;;1.23;;
4696;SDS011;2362;50.780;0.292;2023-07-31T10:40:16;4.53;;;1.10;;
4696;SDS011;2362;50.780;0.292;2023-07-31T10:42:46;12.75;;;1.48;;
4696;SDS011;2362;50.780;0.292;2023-07-31T10:45:37;12.30;;;1.95;;
4696;SDS011;2362;50.780;0.292;2023-07-31T10:48:17;6.63;;;1.38;;
4696;SDS011;2362;50.780;0.292;2023-07-31T10:50:49;9.73;;;1.90;;
4696;SDS011;2362;50.780;0.292;2023-07-31T10:53:31;15.93;;;1.52;;
4696;SDS011;2362;50.780;0.292;2023-07-31T10:56:01;9.52;;;1.05;;
4696;SDS011;2362;50.780;0.292;2023-07-31T10:58:28;8.27;;;1.20;;
4696;SDS011;2362;50.780;0.292;2023-07-31T11:00:57;17.13;;;2.28;;
4696;SDS011;2362;50.780;0.292;2023-07-31T11:03:43;6.53;;;1.35;;
4696;SDS011;2362;50.780;0.292;2023-07-31T11:06:14;9.50;;;1.48;;
4696;SDS011;2362;50.780;0.292;2023-07-31T11:08:42;9.57;;;1.23;;
4696;SDS011;2362;50.780;0.292;2023-07-31T11:11:10;12.02;;;1.50;;
4696;SDS011;2362;50.780;0.292;2023-07-31T11:16:15;15.23;;;1.50;;
4696;SDS011;2362;50.780;0.292;2023-07-31T11:18:45;18.05;;;1.98;;
4696;SDS011;2362;50.780;0.292;2023-07-31T11:21:20;17.83;;;1.33;;
4696;SDS011;2362;50.780;0.292;2023-07-31T11:23:55;12.57;;;1.85;;
4696;SDS011;2362;50.780;0.292;2023-07-31T11:26:22;10.57;;;1.60;;
4696;SDS011;2362;50.780;0.292;2023-07-31T11:28:49;10.85;;;1.00;;
4696;SDS011;2362;50.780;0.292;2023-07-31T11:31:16;6.45;;;1.48;;
4696;SDS011;2362;50.780;0.292;2023-07-31T11:33:44;8.52;;;1.65;;
4696;SDS011;2362;50.780;0.292;2023-07-31T11:36:17;12.20;;;1.60;;
4696;SDS011;2362;50.780;0.292;2023-07-31T11:38:43;14.80;;;1.77;;
4696;SDS011;2362;50.780;0.292;2023-07-31T11:41:09;12.18;;;2.25;;
4696;SDS011;2362;50.780;0.292;2023-07-31T11:43:34;19.88;;;2.67;;
4696;SDS011;2362;50.780;0.292;2023-07-31T11:46:01;14.13;;;2.90;;
4696;SDS011;2362;50.780;0.292;2023-07-31T11:48:35;19.13;;;2.95;;
4696;SDS011;2362;50.780;0.292;2023-07-31T11:51:06;15.07;;;2.80;;
4696;SDS011;2362;50.780;0.292;2023-07-31T11:53:49;20.63;;;2.65;;
4696;SDS011;2362;50.780;0.292;2023-07-31T11:56:17;14.55;;;3.17;;
4696;SDS011;2362;50.780;0.292;2023-07-31T11:58:44;16.13;;;2.40;;
4696;SDS011;2362;50.780;0.292;2023-07-31T12:01:13;17.70;;;3.60;;
4696;SDS011;2362;50.780;0.292;2023-07-31T12:03:40;24.30;;;3.20;;
4696;SDS011;2362;50.780;0.292;2023-07-31T12:06:07;16.92;;;2.47;;
4696;SDS011;2362;50.780;0.292;2023-07-31T12:08:33;24.52;;;3.28;;
4696;SDS011;2362;50.780;0.292;2023-07-31T12:11:02;20.05;;;2.50;;
4696;SDS011;2362;50.780;0.292;2023-07-31T12:13:30;15.27;;;2.42;;
4696;SDS011;2362;50.780;0.292;2023-07-31T12:15:57;15.00;;;2.40;;
4696;SDS011;2362;50.780;0.292;2023-07-31T12:18:25;12.35;;;2.25;;
4696;SDS011;2362;50.780;0.292;2023-07-31T12:20:56;10.98;;;2.33;;
4696;SDS011;2362;50.780;0.292;2023-07-31T12:23:30;14.95;;;1.85;;
4696;SDS011;2362;50.780;0.292;2023-07-31T12:26:03;19.13;;;2.78;;
4696;SDS011;2362;50.780;0.292;2023-07-31T12:28:34;16.75;;;1.90;;
4696;SDS011;2362;50.780;0.292;2023-07-31T12:31:02;18.60;;;2.42;;
4696;SDS011;2362;50.780;0.292;2023-07-31T12:33:33;10.05;;;2.38;;
4696;SDS011;2362;50.780;0.292;2023-07-31T12:36:00;22.90;;;2.60;;
4696;SDS011;2362;50.780;0.292;2023-07-31T12:38:34;15.65;;;1.83;;
4696;SDS011;2362;50.780;0.292;2023-07-31T12:41:00;14.40;;;1.77;;
4696;SDS011;2362;50.780;0.292;2023-07-31T12:43:26;20.08;;;2.38;;
4696;SDS011;2362;50.780;0.292;2023-07-31T12:45:51;14.23;;;2.53;;
4696;SDS011;2362;50.780;0.292;2023-07-31T12:48:18;13.05;;;2.00;;
4696;SDS011;2362;50.780;0.292;2023-07-31T12:50:44;19.27;;;2.60;;
4696;SDS011;2362;50.780;0.292;2023-07-31T12:53:10;13.15;;;2.85;;
4696;SDS011;2362;50.780;0.292;2023-07-31T12:55:35;19.88;;;3.25;;
4696;SDS011;2362;50.780;0.292;2023-07-31T12:58:02;20.25;;;3.55;;
4696;SDS011;2362;50.780;0.292;2023-07-31T13:00:28;12.30;;;2.25;;
4696;SDS011;2362;50.780;0.292;2023-07-31T13:02:53;22.38;;;2.60;;
4696;SDS011;2362;50.780;0.292;2023-07-31T13:05:19;21.90;;;3.20;;
4696;SDS011;2362;50.780;0.292;2023-07-31T13:07:48;14.85;;;2.67;;
4696;SDS011;2362;50.780;0.292;2023-07-31T13:10:14;22.83;;;3.45;;
4696;SDS011;2362;50.780;0.292;2023-07-31T13:12:40;19.98;;;2.92;;
4696;SDS011;2362;50.780;0.292;2023-07-31T13:15:06;19.83;;;3.67;;
4696;SDS011;2362;50.780;0.292;2023-07-31T13:17:32;30.50;;;2.85;;
4696;SDS011;2362;50.780;0.292;2023-07-31T13:19:58;18.27;;;2.30;;
4696;SDS011;2362;50.780;0.292;2023-07-31T13:22:24;15.00;;;2.03;;
4696;SDS011;2362;50.780;0.292;2023-07-31T13:24:50;18.67;;;2.63;;
4696;SDS011;2362;50.780;0.292;2023-07-31T13:27:16;14.15;;;2.35;;
4696;SDS011;2362;50.780;0.292;2023-07-31T13:29:44;20.60;;;2.90;;
4696;SDS011;2362;50.780;0.292;2023-07-31T13:32:10;15.50;;;2.20;;
4696;SDS011;2362;50.780;0.292;2023-07-31T13:34:35;19.48;;;3.67;;
4696;SDS011;2362;50.780;0.292;2023-07-31T13:37:01;23.85;;;3.35;;
4696;SDS011;2362;50.780;0.292;2023-07-31T13:39:27;20.27;;;2.85;;
4696;SDS011;2362;50.780;0.292;2023-07-31T13:41:52;15.15;;;2.50;;
4696;SDS011;2362;50.780;0.292;2023-07-31T13:44:18;15.13;;;3.03;;
4696;SDS011;2362;50.780;0.292;2023-07-31T13:46:44;16.80;;;2.22;;
4696;SDS011;2362;50.780;0.292;2023-07-31T13:49:09;13.88;;;2.25;;
4696;SDS011;2362;50.780;0.292;2023-07-31T13:51:35;22.00;;;2.65;;
4696;SDS011;2362;50.780;0.292;2023-07-31T13:54:01;27.67;;;3.08;;
4696;SDS011;2362;50.780;0.292;2023-07-31T13:56:26;16.20;;;2.10;;
4696;SDS011;2362;50.780;0.292;2023-07-31T13:58:52;12.90;;;2.15;;
4696;SDS011;2362;50.780;0.292;2023-07-31T14:01:18;16.55;;;3.33;;
4696;SDS011;2362;50.780;0.292;2023-07-31T14:03:43;14.05;;;2.22;;
4696;SDS011;2362;50.780;0.292;2023-07-31T14:06:09;18.65;;;2.50;;
4696;SDS011;2362;50.780;0.292;2023-07-31T14:08:35;16.08;;;2.55;;
4696;SDS011;2362;50.780;0.292;2023-07-31T14:11:00;14.30;;;2.38;;
4696;SDS011;2362;50.780;0.292;2023-07-31T14:13:26;22.50;;;3.03;;
4696;SDS011;2362;50.780;0.292;2023-07-31T14:15:52;18.08;;;2.92;;
4696;SDS011;2362;50.780;0.292;2023-07-31T14:18:18;17.20;;;3.20;;
4696;SDS011;2362;50.780;0.292;2023-07-31T14:20:43;10.15;;;2.30;;
4696;SDS011;2362;50.780;0.292;2023-07-31T14:23:09;10.98;;;1.95;;
4696;SDS011;2362;50.780;0.292;2023-07-31T14:25:35;17.83;;;2.47;;
4696;SDS011;2362;50.780;0.292;2023-07-31T14:28:00;13.20;;;1.67;;
4696;SDS011;2362;50.780;0.292;2023-07-31T14:30:26;10.60;;;3.20;;
4696;SDS011;2362;50.780;0.292;2023-07-31T14:32:51;13.43;;;2.05;;
4696;SDS011;2362;50.780;0.292;2023-07-31T14:35:17;16.27;;;2.28;;
4696;SDS011;2362;50.780;0.292;2023-07-31T14:37:43;14.82;;;2.47;;
4696;SDS011;2362;50.780;0.292;2023-07-31T14:40:10;11.98;;;2.53;;
4696;SDS011;2362;50.780;0.292;2023-07-31T14:42:37;10.63;;;2.55;;
4696;SDS011;2362;50.780;0.292;2023-07-31T14:45:04;13.65;;;2.45;;
4696;SDS011;2362;50.780;0.292;2023-07-31T14:47:31;15.77;;;3.03;;
4696;SDS011;2362;50.780;0.292;2023-07-31T14:49:57;22.30;;;3.85;;
4696;SDS011;2362;50.780;0.292;2023-07-31T14:52:23;13.82;;;2.65;;
4696;SDS011;2362;50.780;0.292;2023-07-31T14:54:49;14.40;;;2.35;;
4696;SDS011;2362;50.780;0.292;2023-07-31T14:57:15;16.52;;;3.17;;
4696;SDS011;2362;50.780;0.292;2023-07-31T14:59:41;20.90;;;2.72;;
4696;SDS011;2362;50.780;0.292;2023-07-31T15:02:07;20.38;;;3.03;;
4696;SDS011;2362;50.780;0.292;2023-07-31T15:04:34;12.25;;;3.15;;
4696;SDS011;2362;50.780;0.292;2023-07-31T15:07:00;17.45;;;3.63;;